createdAt,value
2018-08-18T00:02:01.872Z,99.90
2018-08-18T00:04:31.049Z,99.90
2018-08-18T00:06:59.379Z,99.90
2018-08-18T00:09:27.782Z,99.90
2018-08-18T00:11:56.114Z,99.90
2018-08-18T00:14:24.888Z,99.90
2018-08-18T00:16:53.218Z,99.90
2018-08-18T00:19:21.560Z,99.90
2018-08-18T00:21:49.888Z,99.90
2018-08-18T00:24:18.296Z,99.90
2018-08-18T00:26:46.632Z,99.90
2018-08-18T00:29:14.973Z,99.90
2018-08-18T00:31:43.356Z,99.90
2018-08-18T00:34:12.483Z,99.90
2018-08-18T00:36:41.558Z,99.90
2018-08-18T00:39:09.890Z,99.90
2018-08-18T00:41:38.261Z,99.90
2018-08-18T00:44:06.612Z,99.90
2018-08-18T00:46:34.957Z,99.90
2018-08-18T00:49:04.172Z,99.90
2018-08-18T00:51:32.512Z,99.90
2018-08-18T00:54:00.954Z,99.90
2018-08-18T00:56:30.156Z,99.90
2018-08-18T00:58:58.482Z,99.90
2018-08-18T01:01:27.612Z,99.90
2018-08-18T01:03:55.947Z,99.90
2018-08-18T01:06:25.062Z,99.90
2018-08-18T01:08:54.187Z,99.90
2018-08-18T01:11:22.754Z,99.90
2018-08-18T01:13:51.188Z,99.90
2018-08-18T01:16:19.406Z,99.90
2018-08-18T01:18:48.484Z,99.90
2018-08-18T01:21:17.830Z,99.90
2018-08-18T01:23:47.413Z,99.90
2018-08-18T01:26:15.759Z,99.90
2018-08-18T01:28:44.088Z,99.90
2018-08-18T01:31:12.432Z,99.90
2018-08-18T01:33:41.538Z,99.90
2018-08-18T01:36:10.642Z,99.90
2018-08-18T01:38:39.734Z,99.90
2018-08-18T01:41:08.852Z,99.90
2018-08-18T01:43:37.199Z,99.90
2018-08-18T01:46:06.352Z,99.90
2018-08-18T01:48:34.684Z,99.90
2018-08-18T01:51:03.788Z,99.90
2018-08-18T01:53:32.138Z,99.90
2018-08-18T01:56:02.112Z,99.90
2018-08-18T01:58:30.557Z,99.90
2018-08-18T02:00:59.645Z,99.90
2018-08-18T02:03:28.759Z,99.90
2018-08-18T02:05:57.091Z,99.90
2018-08-18T02:08:25.516Z,99.90
2018-08-18T02:10:53.900Z,99.90
2018-08-18T02:13:22.256Z,99.90
2018-08-18T02:15:51.398Z,99.90
2018-08-18T02:18:19.795Z,99.90
2018-08-18T02:20:48.949Z,99.90
2018-08-18T02:23:17.309Z,99.90
2018-08-18T02:25:46.402Z,99.90
2018-08-18T02:28:15.525Z,99.90
2018-08-18T02:30:44.352Z,99.90
2018-08-18T02:33:12.713Z,99.90
2018-08-18T02:35:41.070Z,99.90
2018-08-18T02:38:09.426Z,99.90
2018-08-18T02:40:37.804Z,99.90
2018-08-18T02:43:06.901Z,99.90
2018-08-18T02:45:35.326Z,99.90
2018-08-18T02:48:03.678Z,99.90
2018-08-18T02:50:32.244Z,99.90
2018-08-18T02:53:00.555Z,99.90
2018-08-18T02:55:28.883Z,99.90
2018-08-18T02:57:57.240Z,99.90
2018-08-18T03:00:25.566Z,99.90
2018-08-18T03:02:54.672Z,99.90
2018-08-18T03:05:23.048Z,99.90
2018-08-18T03:07:51.548Z,99.90
2018-08-18T03:10:19.848Z,99.90
2018-08-18T03:12:48.268Z,99.90
2018-08-18T03:15:16.602Z,99.90
2018-08-18T03:17:45.053Z,99.90
2018-08-18T03:20:13.443Z,99.90
2018-08-18T03:22:41.818Z,99.90
2018-08-18T03:25:10.199Z,99.90
2018-08-18T03:27:38.526Z,99.90
2018-08-18T03:30:06.988Z,99.90
2018-08-18T03:32:35.353Z,99.90
2018-08-18T03:35:03.697Z,99.90
2018-08-18T03:37:32.806Z,99.90
2018-08-18T03:40:01.135Z,99.90
2018-08-18T03:42:29.463Z,99.90
2018-08-18T03:44:57.814Z,99.90
2018-08-18T03:47:26.911Z,99.90
2018-08-18T03:49:56.026Z,99.90
2018-08-18T03:52:24.377Z,99.90
2018-08-18T03:54:52.706Z,99.90
2018-08-18T03:57:21.073Z,99.90
2018-08-18T03:59:49.423Z,99.90
2018-08-18T04:02:18.524Z,99.90
2018-08-18T04:04:46.864Z,99.90
2018-08-18T04:07:15.217Z,99.90
2018-08-18T04:09:43.589Z,99.90
2018-08-18T04:12:11.930Z,99.90
2018-08-18T04:14:40.311Z,99.90
2018-08-18T04:17:08.708Z,99.90
2018-08-18T04:19:37.823Z,99.90
2018-08-18T04:22:06.175Z,99.90
2018-08-18T04:24:34.646Z,99.90
2018-08-18T04:27:02.965Z,99.90
2018-08-18T04:29:31.297Z,99.90
2018-08-18T04:31:59.626Z,99.90
2018-08-18T04:34:28.056Z,99.90
2018-08-18T04:36:56.402Z,99.90
2018-08-18T04:39:24.854Z,99.90
2018-08-18T04:41:53.168Z,99.90
2018-08-18T04:44:21.516Z,99.90
2018-08-18T04:46:49.904Z,99.90
2018-08-18T04:49:18.259Z,99.90
2018-08-18T04:51:47.387Z,99.90
2018-08-18T04:54:15.762Z,99.90
2018-08-18T04:56:44.193Z,99.90
2018-08-18T04:59:12.506Z,99.90
2018-08-18T05:01:40.891Z,99.90
2018-08-18T05:04:09.265Z,99.90
2018-08-18T05:06:37.762Z,99.90
2018-08-18T05:09:06.121Z,99.90
2018-08-18T05:11:34.494Z,99.90
2018-08-18T05:14:03.623Z,99.90
2018-08-18T05:16:32.017Z,99.90
2018-08-18T05:19:00.418Z,99.90
2018-08-18T05:21:28.735Z,99.90
2018-08-18T05:23:57.105Z,99.90
2018-08-18T05:26:26.317Z,99.90
2018-08-18T05:28:54.696Z,99.90
2018-08-18T05:31:23.095Z,99.90
2018-08-18T05:33:51.437Z,99.90
2018-08-18T05:36:20.608Z,99.90
2018-08-18T05:38:48.921Z,99.90
2018-08-18T05:41:17.273Z,99.90
2018-08-18T05:43:45.632Z,99.90
2018-08-18T05:46:14.023Z,99.90
2018-08-18T05:48:42.379Z,99.90
2018-08-18T05:51:10.716Z,99.90
2018-08-18T05:53:39.093Z,99.90
2018-08-18T05:56:07.517Z,99.90
2018-08-18T05:58:35.918Z,99.90
2018-08-18T06:01:04.317Z,99.90
2018-08-18T06:03:32.756Z,99.90
2018-08-18T06:06:02.303Z,99.90
2018-08-18T06:08:30.683Z,99.90
2018-08-18T06:10:59.819Z,99.90
2018-08-18T06:13:28.251Z,99.90
2018-08-18T06:15:56.593Z,99.90
2018-08-18T06:18:24.994Z,99.90
2018-08-18T06:20:53.418Z,99.90
2018-08-18T06:23:22.161Z,99.90
2018-08-18T06:25:50.655Z,99.90
2018-08-18T06:28:19.177Z,99.90
2018-08-18T06:30:47.655Z,99.90
2018-08-18T06:33:16.037Z,99.90
2018-08-18T06:35:44.444Z,99.90
2018-08-18T06:38:12.829Z,99.90
2018-08-18T06:40:41.217Z,99.90
2018-08-18T06:43:09.552Z,99.90
2018-08-18T06:45:37.965Z,99.90
2018-08-18T06:48:06.319Z,99.90
2018-08-18T06:50:34.693Z,99.90
2018-08-18T06:53:03.953Z,99.90
2018-08-18T06:55:32.381Z,99.90
2018-08-18T06:58:00.770Z,99.90
2018-08-18T07:00:29.199Z,99.90
2018-08-18T07:02:57.639Z,99.90
2018-08-18T07:05:25.979Z,99.90
2018-08-18T07:07:55.127Z,99.90
2018-08-18T07:10:23.529Z,99.90
2018-08-18T07:12:51.913Z,99.90
2018-08-18T07:15:20.268Z,99.90
2018-08-18T07:17:48.635Z,99.90
2018-08-18T07:20:17.031Z,99.90
2018-08-18T07:22:45.351Z,99.90
2018-08-18T07:25:14.501Z,99.90
2018-08-18T07:27:42.895Z,99.90
2018-08-18T07:30:11.379Z,99.90
2018-08-18T07:32:39.819Z,99.90
2018-08-18T07:35:08.257Z,99.90
2018-08-18T07:37:36.760Z,99.90
2018-08-18T07:40:05.135Z,99.90
2018-08-18T07:42:33.599Z,99.90
2018-08-18T07:45:01.995Z,99.90
2018-08-18T07:47:31.203Z,99.90
2018-08-18T07:49:59.631Z,99.90
2018-08-18T07:52:27.979Z,99.90
2018-08-18T07:54:56.357Z,99.90
2018-08-18T07:57:24.733Z,99.90
2018-08-18T07:59:53.191Z,99.90
2018-08-18T08:02:22.329Z,99.90
2018-08-18T08:04:50.655Z,99.90
2018-08-18T08:07:19.007Z,99.90
2018-08-18T08:09:47.431Z,99.90
2018-08-18T08:12:16.557Z,99.90
2018-08-18T08:14:44.933Z,99.90
2018-08-18T08:17:13.269Z,99.90
2018-08-18T08:19:41.626Z,99.90
2018-08-18T08:22:09.987Z,99.90
2018-08-18T08:24:38.428Z,99.90
2018-08-18T08:27:08.363Z,99.20
2018-08-18T08:29:36.685Z,99.20
2018-08-18T08:32:05.057Z,99.20
2018-08-18T08:34:33.627Z,98.60
2018-08-18T08:37:02.115Z,97.90
2018-08-18T08:39:30.432Z,97.60
2018-08-18T08:41:58.755Z,97.10
2018-08-18T08:44:27.105Z,95.20
2018-08-18T08:46:55.440Z,94.80
2018-08-18T08:49:23.790Z,94.70
2018-08-18T08:51:52.112Z,94.20
2018-08-18T08:54:20.477Z,93.90
2018-08-18T08:56:48.851Z,93.00
2018-08-18T08:59:17.209Z,93.30
2018-08-18T09:01:45.559Z,93.00
2018-08-18T09:04:14.101Z,91.10
2018-08-18T09:06:42.472Z,91.10
2018-08-18T09:09:10.814Z,90.60
2018-08-18T09:11:39.140Z,90.70
2018-08-18T09:14:07.489Z,90.00
2018-08-18T09:16:37.067Z,88.70
2018-08-18T09:19:05.409Z,87.70
2018-08-18T09:21:34.705Z,87.80
2018-08-18T09:24:03.074Z,87.50
2018-08-18T09:26:31.463Z,86.20
2018-08-18T09:29:00.030Z,84.40
2018-08-18T09:31:28.392Z,84.80
2018-08-18T09:33:56.835Z,85.40
2018-08-18T09:36:25.999Z,84.10
2018-08-18T09:38:54.284Z,84.10
2018-08-18T09:41:22.626Z,84.10
2018-08-18T09:43:50.962Z,83.30
2018-08-18T09:46:20.090Z,82.20
2018-08-18T09:48:48.400Z,82.10
2018-08-18T09:51:16.868Z,82.60
2018-08-18T09:53:45.277Z,80.40
2018-08-18T09:56:13.614Z,82.00
2018-08-18T09:58:42.002Z,82.20
2018-08-18T10:01:11.044Z,83.90
2018-08-18T10:03:40.354Z,84.20
2018-08-18T10:06:09.498Z,84.30
2018-08-18T10:08:37.851Z,83.60
2018-08-18T10:11:06.223Z,80.30
2018-08-18T10:13:34.582Z,80.30
2018-08-18T10:16:04.088Z,77.90
2018-08-18T10:18:32.430Z,76.80
2018-08-18T10:21:00.841Z,74.10
2018-08-18T10:23:29.975Z,75.00
2018-08-18T10:25:58.390Z,74.70
2018-08-18T10:28:26.751Z,77.50
2018-08-18T10:30:55.242Z,73.90
2018-08-18T10:33:23.604Z,71.90
2018-08-18T10:35:52.679Z,73.80
2018-08-18T10:38:21.349Z,73.70
2018-08-18T10:40:50.479Z,71.30
2018-08-18T10:43:19.011Z,71.30
2018-08-18T10:45:47.935Z,68.60
2018-08-18T10:48:16.328Z,67.70
2018-08-18T10:50:44.694Z,69.50
2018-08-18T10:53:13.020Z,66.50
2018-08-18T10:55:41.469Z,68.70
2018-08-18T10:58:09.845Z,64.30
2018-08-18T11:00:38.189Z,63.10
2018-08-18T11:03:06.547Z,65.50
2018-08-18T11:05:34.904Z,65.90
2018-08-18T11:08:03.254Z,69.50
2018-08-18T11:10:31.598Z,68.10
2018-08-18T11:12:59.930Z,67.10
2018-08-18T11:15:28.310Z,65.20
2018-08-18T11:17:56.679Z,64.80
2018-08-18T11:20:25.012Z,66.40
2018-08-18T11:22:53.353Z,64.30
2018-08-18T11:25:21.704Z,62.90
2018-08-18T11:27:50.050Z,65.80
2018-08-18T11:30:19.218Z,63.30
2018-08-18T11:32:47.530Z,63.10
2018-08-18T11:35:16.669Z,63.10
2018-08-18T11:37:45.737Z,60.50
2018-08-18T11:40:14.830Z,60.00
2018-08-18T11:42:43.960Z,58.60
2018-08-18T11:45:12.644Z,58.50
2018-08-18T11:47:41.420Z,58.90
2018-08-18T11:50:10.531Z,57.30
2018-08-18T11:52:38.882Z,57.30
2018-08-18T11:55:07.980Z,56.90
2018-08-18T11:57:36.332Z,56.90
2018-08-18T12:00:04.671Z,56.30
2018-08-18T12:02:33.042Z,56.30
2018-08-18T12:05:01.435Z,55.30
2018-08-18T12:07:29.799Z,56.20
2018-08-18T12:09:58.177Z,54.50
2018-08-18T12:12:26.534Z,54.70
2018-08-18T12:14:54.886Z,55.00
2018-08-18T12:17:23.315Z,56.90
2018-08-18T12:19:51.656Z,55.20
2018-08-18T12:22:21.320Z,56.20
2018-08-18T12:24:49.687Z,56.20
2018-08-18T12:27:18.102Z,58.30
2018-08-18T12:29:46.704Z,56.70
2018-08-18T12:32:15.147Z,55.70
2018-08-18T12:34:43.909Z,55.10
2018-08-18T12:37:12.353Z,54.10
2018-08-18T12:39:41.384Z,52.80
2018-08-18T12:42:09.721Z,52.80
2018-08-18T12:44:38.022Z,53.10
2018-08-18T12:47:06.425Z,54.20
2018-08-18T12:49:34.863Z,52.90
2018-08-18T12:52:03.191Z,52.90
2018-08-18T12:54:32.125Z,52.70
2018-08-18T12:57:01.374Z,54.60
2018-08-18T12:59:29.769Z,53.00
2018-08-18T13:01:58.232Z,52.80
2018-08-18T13:04:26.717Z,51.80
2018-08-18T13:06:54.949Z,51.00
2018-08-18T13:09:23.324Z,51.30
2018-08-18T13:11:51.654Z,51.90
2018-08-18T13:14:20.066Z,52.80
2018-08-18T13:16:48.403Z,51.50
2018-08-18T13:19:16.862Z,49.70
2018-08-18T13:21:45.974Z,50.70
2018-08-18T13:24:14.356Z,50.70
2018-08-18T13:26:42.700Z,51.40
2018-08-18T13:29:11.198Z,52.30
2018-08-18T13:31:40.318Z,52.70
2018-08-18T13:34:08.694Z,52.60
2018-08-18T13:36:37.089Z,50.50
2018-08-18T13:39:05.566Z,51.30
2018-08-18T13:41:33.900Z,51.70
2018-08-18T13:44:02.353Z,50.90
2018-08-18T13:46:30.776Z,50.60
2018-08-18T13:48:59.171Z,50.90
2018-08-18T13:51:28.286Z,52.00
2018-08-18T13:53:56.996Z,52.00
2018-08-18T13:56:25.451Z,52.50
2018-08-18T13:58:53.927Z,49.80
2018-08-18T14:01:26.098Z,51.90
2018-08-18T14:03:54.568Z,49.70
2018-08-18T14:06:22.906Z,50.60
2018-08-18T14:08:51.225Z,51.80
2018-08-18T14:11:20.539Z,52.40
2018-08-18T14:13:48.979Z,50.70
2018-08-18T14:16:17.395Z,51.10
2018-08-18T14:18:45.768Z,51.50
2018-08-18T14:21:14.151Z,52.40
2018-08-18T14:23:43.302Z,51.90
2018-08-18T14:26:11.707Z,53.50
2018-08-18T14:28:40.107Z,52.60
2018-08-18T14:31:08.480Z,52.70
2018-08-18T14:33:36.824Z,50.50
2018-08-18T14:36:05.166Z,50.60
2018-08-18T14:38:33.589Z,52.70
2018-08-18T14:41:02.808Z,52.80
2018-08-18T14:43:31.083Z,52.60
2018-08-18T14:46:00.301Z,52.30
2018-08-18T14:48:29.736Z,51.70
2018-08-18T14:50:58.080Z,51.80
2018-08-18T14:53:26.488Z,52.50
2018-08-18T14:55:54.874Z,52.40
2018-08-18T14:58:23.242Z,52.70
2018-08-18T15:00:52.683Z,52.90
2018-08-18T15:03:21.054Z,53.30
2018-08-18T15:05:49.397Z,52.60
2018-08-18T15:08:17.734Z,51.60
2018-08-18T15:10:46.834Z,53.30
2018-08-18T15:13:16.231Z,52.90
2018-08-18T15:15:44.755Z,52.80
2018-08-18T15:18:13.041Z,52.90
2018-08-18T15:20:42.296Z,53.10
2018-08-18T15:23:11.446Z,52.90
2018-08-18T15:25:39.796Z,52.80
2018-08-18T15:28:08.122Z,52.20
2018-08-18T15:30:36.478Z,52.90
2018-08-18T15:33:04.827Z,52.70
2018-08-18T15:35:33.190Z,53.80
2018-08-18T15:38:02.299Z,53.60
2018-08-18T15:40:30.654Z,53.60
2018-08-18T15:42:59.017Z,53.50
2018-08-18T15:45:27.362Z,54.20
2018-08-18T15:47:55.735Z,53.60
2018-08-18T15:50:24.279Z,53.70
2018-08-18T15:52:53.396Z,53.50
2018-08-18T15:55:21.758Z,53.50
2018-08-18T15:57:50.911Z,54.30
2018-08-18T16:00:25.920Z,54.40
2018-08-18T16:02:54.303Z,54.50
2018-08-18T16:05:22.702Z,53.40
2018-08-18T16:07:51.747Z,54.00
2018-08-18T16:10:20.537Z,54.40
2018-08-18T16:12:49.656Z,54.80
2018-08-18T16:15:18.038Z,54.80
2018-08-18T16:17:46.378Z,54.90
2018-08-18T16:20:14.698Z,54.50
2018-08-18T16:22:43.077Z,55.20
2018-08-18T16:25:11.429Z,55.70
2018-08-18T16:27:40.675Z,56.20
2018-08-18T16:30:09.828Z,55.00
2018-08-18T16:32:38.232Z,55.00
2018-08-18T16:35:06.553Z,54.10
2018-08-18T16:37:34.889Z,54.40
2018-08-18T16:40:04.254Z,54.20
2018-08-18T16:42:32.599Z,53.70
2018-08-18T16:45:00.940Z,54.10
2018-08-18T16:47:30.327Z,53.60
2018-08-18T16:49:59.513Z,54.10
2018-08-18T16:52:28.227Z,54.10
2018-08-18T16:54:57.356Z,53.60
2018-08-18T16:57:25.837Z,53.60
2018-08-18T16:59:54.159Z,53.60
2018-08-18T17:02:23.310Z,54.30
2018-08-18T17:04:51.656Z,54.30
2018-08-18T17:07:20.015Z,56.00
2018-08-18T17:09:48.351Z,54.60
2018-08-18T17:12:16.719Z,55.30
2018-08-18T17:14:45.199Z,55.10
2018-08-18T17:17:14.712Z,56.00
2018-08-18T17:19:43.018Z,56.30
2018-08-18T17:22:11.363Z,57.50
2018-08-18T17:24:39.688Z,58.30
2018-08-18T17:27:08.818Z,59.50
2018-08-18T17:29:37.146Z,58.90
2018-08-18T17:32:05.499Z,58.90
2018-08-18T17:34:33.870Z,59.20
2018-08-18T17:37:02.208Z,59.80
2018-08-18T17:39:31.296Z,60.40
2018-08-18T17:42:00.436Z,61.80
2018-08-18T17:44:28.784Z,60.90
2018-08-18T17:46:57.896Z,61.90
2018-08-18T17:49:26.271Z,61.80
2018-08-18T17:51:54.548Z,62.30
2018-08-18T17:54:22.926Z,62.20
2018-08-18T17:56:52.038Z,63.30
2018-08-18T17:59:20.382Z,63.30
2018-08-18T18:01:48.722Z,63.60
2018-08-18T18:04:17.062Z,63.60
2018-08-18T18:06:45.958Z,63.80
2018-08-18T18:09:14.892Z,64.00
2018-08-18T18:11:43.226Z,64.20
2018-08-18T18:14:11.576Z,64.20
2018-08-18T18:16:39.988Z,64.40
2018-08-18T18:19:08.736Z,64.70
2018-08-18T18:21:37.080Z,64.70
2018-08-18T18:24:05.596Z,64.80
2018-08-18T18:26:33.937Z,65.40
2018-08-18T18:29:02.284Z,65.80
2018-08-18T18:31:30.869Z,66.00
2018-08-18T18:34:00.013Z,66.80
2018-08-18T18:36:30.101Z,66.80
2018-08-18T18:38:58.740Z,67.10
2018-08-18T18:41:27.056Z,67.30
2018-08-18T18:43:55.378Z,67.60
2018-08-18T18:46:24.031Z,68.20
2018-08-18T18:48:52.390Z,68.30
2018-08-18T18:51:21.623Z,68.90
2018-08-18T18:53:50.018Z,68.90
2018-08-18T18:56:18.367Z,69.20
2018-08-18T18:58:46.744Z,69.70
2018-08-18T19:01:15.206Z,69.80
2018-08-18T19:03:44.316Z,70.50
2018-08-18T19:06:12.686Z,70.40
2018-08-18T19:08:41.055Z,70.80
2018-08-18T19:11:10.239Z,71.50
2018-08-18T19:13:38.673Z,71.50
2018-08-18T19:16:07.028Z,71.70
2018-08-18T19:18:35.415Z,71.60
2018-08-18T19:21:03.767Z,72.50
2018-08-18T19:23:32.884Z,73.80
2018-08-18T19:26:01.249Z,73.60
2018-08-18T19:28:30.352Z,74.10
2018-08-18T19:30:58.671Z,74.10
2018-08-18T19:33:27.010Z,73.90
2018-08-18T19:35:55.379Z,74.40
2018-08-18T19:38:24.500Z,75.10
2018-08-18T19:40:52.900Z,75.00
2018-08-18T19:43:21.365Z,75.70
2018-08-18T19:45:49.947Z,76.70
2018-08-18T19:48:18.296Z,76.80
2018-08-18T19:50:47.389Z,77.60
2018-08-18T19:53:16.569Z,77.90
2018-08-18T19:55:44.992Z,77.70
2018-08-18T19:58:13.358Z,77.80
2018-08-18T20:00:42.455Z,78.40
2018-08-18T20:03:11.688Z,78.80
2018-08-18T20:05:40.041Z,78.80
2018-08-18T20:08:09.142Z,78.90
2018-08-18T20:10:37.497Z,78.80
2018-08-18T20:13:05.939Z,78.90
2018-08-18T20:15:34.716Z,79.10
2018-08-18T20:18:03.204Z,79.70
2018-08-18T20:20:31.548Z,80.50
2018-08-18T20:22:59.896Z,81.00
2018-08-18T20:25:28.244Z,81.00
2018-08-18T20:27:56.742Z,81.40
2018-08-18T20:30:25.166Z,81.50
2018-08-18T20:32:53.521Z,82.50
2018-08-18T20:35:21.847Z,82.80
2018-08-18T20:37:50.232Z,82.80
2018-08-18T20:40:18.658Z,82.50
2018-08-18T20:42:48.605Z,82.80
2018-08-18T20:45:16.942Z,81.90
2018-08-18T20:47:45.367Z,81.60
2018-08-18T20:50:14.451Z,82.40
2018-08-18T20:52:42.811Z,82.10
2018-08-18T20:55:11.140Z,81.40
2018-08-18T20:57:39.492Z,81.70
2018-08-18T21:00:07.930Z,81.70
2018-08-18T21:02:36.236Z,82.20
2018-08-18T21:05:06.080Z,83.00
2018-08-18T21:07:34.457Z,82.60
2018-08-18T21:10:02.821Z,83.10
2018-08-18T21:12:31.923Z,83.80
2018-08-18T21:15:00.533Z,83.80
2018-08-18T21:17:28.889Z,84.00
2018-08-18T21:19:57.213Z,84.50
2018-08-18T21:22:25.687Z,84.70
2018-08-18T21:24:54.008Z,85.00
2018-08-18T21:27:23.122Z,84.90
2018-08-18T21:29:51.439Z,84.90
2018-08-18T21:32:19.775Z,85.20
2018-08-18T21:34:48.380Z,85.50
2018-08-18T21:37:16.761Z,85.80
2018-08-18T21:39:45.140Z,86.40
2018-08-18T21:42:13.465Z,86.60
2018-08-18T21:44:41.840Z,86.60
2018-08-18T21:47:10.259Z,86.70
2018-08-18T21:49:38.816Z,86.80
2018-08-18T21:52:07.115Z,87.00
2018-08-18T21:54:35.455Z,87.40
2018-08-18T21:57:03.785Z,87.90
2018-08-18T21:59:32.139Z,88.30
2018-08-18T22:02:01.245Z,89.30
2018-08-18T22:04:29.595Z,89.30
2018-08-18T22:06:57.944Z,89.40
2018-08-18T22:09:26.854Z,89.70
2018-08-18T22:11:55.217Z,90.00
2018-08-18T22:14:23.527Z,90.30
2018-08-18T22:16:51.889Z,90.30
2018-08-18T22:19:20.886Z,90.80
2018-08-18T22:21:49.359Z,90.80
2018-08-18T22:24:17.899Z,90.90
2018-08-18T22:26:46.283Z,91.30
2018-08-18T22:29:14.667Z,91.30
2018-08-18T22:31:43.062Z,91.40
2018-08-18T22:34:11.414Z,91.50
2018-08-18T22:36:39.745Z,91.80
2018-08-18T22:39:08.090Z,91.90
2018-08-18T22:41:36.417Z,92.10
2018-08-18T22:44:05.543Z,92.40
2018-08-18T22:46:33.917Z,92.40
2018-08-18T22:49:02.251Z,92.30
2018-08-18T22:51:30.679Z,92.40
2018-08-18T22:53:59.030Z,92.50
2018-08-18T22:56:27.361Z,92.50
2018-08-18T22:58:55.696Z,92.90
2018-08-18T23:01:24.821Z,93.20
2018-08-18T23:03:54.094Z,93.40
2018-08-18T23:06:23.235Z,93.50
2018-08-18T23:08:52.516Z,93.60
2018-08-18T23:11:21.703Z,93.70
2018-08-18T23:13:50.105Z,93.70
2018-08-18T23:16:18.431Z,93.90
2018-08-18T23:18:46.779Z,93.90
2018-08-18T23:21:15.097Z,94.30
2018-08-18T23:23:43.476Z,94.80
2018-08-18T23:26:12.585Z,95.40
2018-08-18T23:28:40.933Z,95.40
2018-08-18T23:31:09.378Z,95.60
2018-08-18T23:33:37.731Z,95.80
2018-08-18T23:36:06.243Z,96.10
2018-08-18T23:38:34.591Z,96.40
2018-08-18T23:41:02.927Z,96.60
2018-08-18T23:43:31.281Z,96.80
2018-08-18T23:45:59.624Z,97.10
2018-08-18T23:48:28.017Z,97.40
2018-08-18T23:50:56.371Z,97.60
2018-08-18T23:53:25.477Z,98.40
2018-08-18T23:55:53.853Z,98.40
2018-08-18T23:58:22.949Z,98.90
